Ginys del Meteocat

Dades de l'estació automàtica el Canós

?
?
Resum diari 21:30 TU
Dades diàries de l'estació meteorològica
Temperatura mitjana 7.3 °C
Temperatura màxima 12.3 °C 14:40 TU
Temperatura mínima 3.0 °C 7:19 TU
Humitat relativa mitjana 83%
Precipitació acumulada 0.0 mm
Ratxa màxima del vent (2 m) 11.5 km/h - 276º 14:58 TU
Irradiació solar global 9.4 MJ/m2

El tram horari està expressat en Temps Universal (TU). Cal sumar una hora en horari d'hivern i dues en horari d'estiu per passar a l'hora oficial.

el Canós

Metadades estació meteorol´gica
Municipi Els Plans de Sió
Comarca Segarra
Altitud 429 m
Data alta 22.10.1988
Estat actual Operativa
Dades de període
Període
TU
TM
°C
TX
°C
TN
°C
HRM
%
PPT
mm
VVM (2 m)
km/h
DVM (2 m)
graus
VVX (2 m)
km/h
RS
W/m2
00:00 - 00:30 5.9 6.3 5.8 93 0.0 2.2 95 6.5 0
00:30 - 01:00 6.3 6.6 5.8 91 0.0 0.7 124 3.6 0
01:00 - 01:30 5.5 5.8 5.2 94 0.0 0.7 108 3.2 0
01:30 - 02:00 5.1 5.3 5.0 95 0.0 0.7 102 4.0 0
02:00 - 02:30 5.3 5.5 5.1 93 0.0 1.4 94 5.8 0
02:30 - 03:00 5.6 5.8 5.4 90 0.0 1.8 106 5.4 0
03:00 - 03:30 5.1 5.5 4.5 91 0.0 2.2 89 5.8 0
03:30 - 04:00 4.6 5.2 4.1 92 0.0 1.4 94 4.0 0
04:00 - 04:30 4.6 4.9 4.2 90 0.0 0.7 172 2.9 0
04:30 - 05:00 3.8 4.6 3.4 93 0.0 1.1 103 4.7 0
05:00 - 05:30 4.0 4.5 3.5 91 0.0 1.8 113 4.3 0
05:30 - 06:00 3.8 4.1 3.4 93 0.0 2.9 152 5.4 0
06:00 - 06:30 4.1 4.3 3.7 90 0.0 4.7 137 8.3 0
06:30 - 07:00 3.8 4.0 3.6 91 0.0 5.4 137 10.1 0
07:00 - 07:30 3.6 3.9 3.0 90 0.0 5.0 146 10.4 4
07:30 - 08:00 3.9 4.1 3.7 89 0.0 6.8 141 11.2 30
08:00 - 08:30 4.1 4.5 3.9 90 0.0 1.4 125 8.3 77
08:30 - 09:00 5.1 6.0 4.6 88 0.0 1.4 104 6.1 154
09:00 - 09:30 6.7 7.6 6.1 83 0.0 2.5 138 6.5 229
09:30 - 10:00 8.4 9.3 7.6 78 0.0 1.4 141 4.3 305
10:00 - 10:30 9.5 10.2 9.0 73 0.0 1.4 138 6.5 357
10:30 - 11:00 9.8 10.6 9.5 72 0.0 2.2 285 6.8 414
11:00 - 11:30 9.9 10.2 9.8 72 0.0 3.2 284 6.8 455
11:30 - 12:00 10.5 11.3 10.1 68 0.0 2.5 293 6.5 475
12:00 - 12:30 11.0 11.4 10.8 66 0.0 2.5 317 7.6 420
12:30 - 13:00 11.1 11.5 10.6 67 0.0 3.6 287 8.3 464
13:00 - 13:30 11.6 11.8 11.4 65 0.0 4.3 307 9.0 474
13:30 - 14:00 11.7 11.8 11.5 65 0.0 4.0 299 8.3 391
14:00 - 14:30 12.0 12.2 11.8 64 0.0 3.2 303 7.6 362
14:30 - 15:00 12.0 12.3 11.9 66 0.0 4.3 287 11.5 289
15:00 - 15:30 11.7 12.0 11.5 66 0.0 6.1 262 10.1 211
15:30 - 16:00 11.5 11.7 11.1 67 0.0 3.6 283 7.2 137
16:00 - 16:30 10.5 11.0 10.0 75 0.0 2.2 257 5.4 51
16:30 - 17:00 9.6 9.9 9.4 80 0.0 2.2 204 4.0 12
17:00 - 17:30 8.8 9.4 8.0 83 0.0 0.4 177 2.9 0
17:30 - 18:00 8.2 8.5 7.9 86 0.0 1.1 209 2.9 0
18:00 - 18:30 7.9 8.0 7.7 86 0.0 1.4 181 3.2 0
18:30 - 19:00 7.0 7.7 6.0 89 0.0 2.9 125 5.4 0
19:00 - 19:30 6.3 6.6 6.0 91 0.0 2.9 134 8.6 0
19:30 - 20:00 5.9 6.1 5.8 92 0.0 1.8 128 7.2 0
20:00 - 20:30 5.9 6.3 5.7 91 0.0 3.6 132 7.6 0
20:30 - 21:00 5.6 5.9 5.3 92 0.0 2.5 129 9.4 0
21:00 - 21:30 5.9 6.4 5.5 92 0.0 2.5 128 9.4 0
21:30 - 22:00 6.1 6.5 6.0 92 0.0 1.4 122 7.2 0

Les dades en taronja només han passat un control de qualitat automàtic. Resta pendent la seva validació definitiva.